Seleccione un Aeropuerto
Regional La Paz
EstaciónAerodromoSit. GeograficaDescripción
SLLPInternaciónal El Alto16-08S-68-10W SLLP 021300Z 10006KT 4000E VCFG FEW003 SCT012 FEW017CB BKN070 08/07 Q1037 A3065 627.8 HR92 P1782 VCFG NE/E/SE CB NE/NW NOSIG=
SLRYReyes14-18S-67-21W SLRY 021300Z 34004KT 8000 -RA SCT006 BKN020 OVC070 24/23 Q1007 A2976 HR96 RWY WET OPR C206=
SLRQRurrenabaque14-25S-67-29W SLRQ 021300Z NIL=
SLAPApolo14-44S-68-24W SLAP 021300Z 36010KT 9999 SCT015 BKN070 21/18 Q1017 A3005 858.3 HR78 CI=
SLSBSan Borja14-51S-66-44W SLSB 021300Z 34004KT 5000 -RA BKN005 OVC070 25/25 Q1006 A2971 HR98 RWY WET INOP=
SLCNCharaña17-35S-69-25W
SLOROruro17-57S-67-04W SLOR 021300Z 04009KT 9999 FEW017 BKN200 14/08 Q1033 A3052 655.0 HR65=
SLUYUyuni20-27S-62-52W SLUY 021300Z 33007KT 9999 NSC 13/M05 Q1033 A3053 658.2 HR27 CI=
SLCCCopacabana - Tito Yupanqui16-11S-69-05W SLCC SLOR SLUY
Regional Cochabamba
EstaciónAerodromoSit. GeograficaDescripción
SLVMVillamontes21-15S-63-24W SLVM 021300Z 18005KT 9999 FEW025 31/22 Q1012 A2990 HR60 CI=
SLHIChimore16-58S-65-09W SLHI 021300Z 00000KT 5000 -RA BKN007 OVC070 23/23 Q1011 A2987 HR100=
SLCBCochabamba17-25S-66-10W SLCB 021300Z 15006KT 6000 -TSRA BKN025 FEW027CB OVC070 16/14 Q1025 A3029 751.9 HR87 CB/TS S/SW/W/NW BECMG 8000 NSW=
SLALAlcantari19-14S-65-09W SLAL 021300Z 01010KT 9999 SCT015 BKN070 13/08 Q1030 A3044 704.7 HR73 CI=
SLPOPotosí19-32S-65-43W SLPO 021300Z 06006KT 9999 SCT015 BKN200 12/07 Q1036 A3059 636.7 HR72=
SLAGMonteagudo19-49S-63-58W SLAG 021300Z NIL=
SLTJTarija21-33S-64-42W SLTJ 021300Z 00000KT 9999 BKN027 BKN070 20/14 Q1021 A3018 816.5 HR72=
SLYAYacuiba21-57S-63-39W SLYA 021300Z 00000KT 9999 BKN070 28/22 Q1013 A2994 938.4 HR62=
SLBJBermejo22-46S-64-18W SLBJ 021300Z NIL=
Regional Santa Cruz
EstaciónAerodromoSit. GeograficaDescripción
SLVGValle Grande18-28S-64-05W SLVG 011200Z 00000KT 9999 BKN030 17/13 Q1022 A3018 HR72 RWY NML =
SLASAscención de Guarayos15-55S-63-09W SLAS 011200Z 36005KT 9999 OVC012 24/23 Q1013 A2992 HR96 RWY WET OPR=
SLCPConcepción16-08S-62-01W SLCP 011200Z 00000KT 9999 OVC006 22/21 Q1014 A2994 HR96 SH N/NE RWY WET OPR=
SLJVSan Javier16-16S-62-28W SLJV 011200Z NIL=
SLTISan Matías16-20S-58-24W SLTI 011200Z 36006KT 9999 NSC 27/23 Q1016 A3000 HR78 CI RWY NML =
SLSISan Ignacio de Velasco16-23S-60-57W SLSI 162100Z 18006KT 9999 SCT070 24/18 Q1012 A2988 HR69=
SLVRInternaciónal Viru Viru17-38S-63-08W SLVR 021300Z 30012KT 260V320 9999 FEW015 FEW027CB BKN070 25/23 Q1013 A2991 968.9 HR88 CB/NW CI NOSIG=
SLETEl Trompillo17-48S-63-10W SLET 011900Z NIL=
SLJESan José de Chiquitos17-49S-60-44W SLJE 011200Z WO ATTN=
SLRBRoboré18-19S-59-45W SLRB 011800Z 36010KT 9999 BKN017 FEW023CB 30/23 Q1011 A2985 HR66 CB N/NW/W/S RWY NML=
SLPSPuerto Suárez18-58S-57-49W SLPS 011700Z 09004KT 9999 BKN017 34/23 Q1009 A2980 HR57=
SLCACamiri20-00S-63-31W SLCA 011800Z 00000KT 9999 BKN033 34/13 Q1010 A2983 HR28 RWY NML =
Regional Beni
EstaciónAerodromoSit. GeograficaDescripción
SLTRTrinidad14-49S-64-54W SLTR 021300Z 34006KT 9999 FEW005 BKN070 26/25 Q1011 A2987 993.0 HR95 NOSIG=
SLCOCobija11-02S-68-47W SLCO 021300Z 32006KT 9999 SCT013 BKN080 27/24 Q1012 A2991 985.5 HR85=
SLGMGuayaramerín10-53S-65-23W SLGM 011100Z 00000KT 9999 SCT003 SCT080 BKN200 25/24 Q1010 A2983 HR96=
SLRIRiberalta11-00S-66-04W SLRI 021300Z 36008KT 9999 BKN015 BKN080 27/24 Q1013 A2993 HR83=
SLJOSan Joaquin13-03S-64-39W SLJO 011100Z NIL=
SLRASan Ramón13-15S-64-36W SLRA 011100Z WO ATTN=
SLMGSan Magdalena13-15S-64-36W SLMG 011100Z 00000KT 9999 BKN080 24/23 Q1008 A2977 HR98 RWY OPR C210=
SLBUBaures13-39S-63-42W SLBU 011100Z NIL=
SLSASanta Ana de Yacuma13-45S-65-26W SLSA 011200Z 34004KT 9999 SCT015 BKN200 25/23 Q1010 A2983 HR92=
SLSRSanta Rosa14-04S-66-47W SLSR 011100Z 00000KT 9999 SCT012 BKN080 24/22 Q1012 A2989 HR93 RWY WET INOP=
SLSMSan Ignacio de Moxos14-57S-65-38W SLSM 011100Z NIL=